Time;durP1;ratioP1;P1;durP2;ratioP2;P2;SDS_P1;SDS_P2;PMS_P1;PMS_P2;Temp;Humidity;BMP_temperature;BMP_pressure;BME280_temperature;BME280_humidity;BME280_pressure;Samples;Min_cycle;Max_cycle;Signal;HPM_P1;HPM_P2
2022/06/05 00:01:24;;;;;;;8.20;7.40;;;;;;;8.39;96.89;102183.19;5012063;28;20231;-51
2022/06/05 00:04:27;;;;;;;8.85;7.82;;;;;;;8.23;97.22;102182.44;5011689;28;20197;-51
2022/06/05 00:07:14;;;;;;;8.65;7.75;;;;;;;8.10;98.26;102190.53;4994431;28;20196;-51
2022/06/05 00:10:08;;;;;;;11.57;7.78;;;;;;;8.16;98.75;102175.38;5011795;28;20189;-50
2022/06/05 00:12:52;;;;;;;6.80;6.07;;;;;;;8.22;99.09;102190.44;5012186;28;20248;-50
2022/06/05 00:15:18;;;;;;;8.93;7.78;;;;;;;8.20;99.08;102173.56;5011969;28;20576;-51
2022/06/05 00:17:43;;;;;;;8.43;7.38;;;;;;;8.11;99.29;102166.50;5011692;28;20181;-52
2022/06/05 00:20:10;;;;;;;8.38;7.43;;;;;;;8.26;98.79;102168.16;5012172;28;20189;-52
2022/06/05 00:22:38;;;;;;;8.38;7.57;;;;;;;8.19;98.52;102171.78;5011836;28;20494;-48
2022/06/05 00:25:05;;;;;;;8.15;7.35;;;;;;;8.14;97.99;102165.59;5010969;28;20231;-50
2022/06/05 00:27:53;;;;;;;10.20;8.27;;;;;;;8.03;98.20;102171.00;5012207;28;20195;-50
2022/06/05 00:30:23;;;;;;;9.15;7.82;;;;;;;7.96;98.87;102171.91;5012345;28;20188;-50
2022/06/05 00:33:23;;;;;;;9.57;7.30;;;;;;;8.05;99.22;102178.09;5012328;28;20549;-49
2022/06/05 00:35:57;;;;;;;8.70;7.68;;;;;;;7.84;99.47;102175.53;4992737;28;20203;-48
2022/06/05 00:38:40;;;;;;;8.73;7.47;;;;;;;7.74;99.23;102177.38;5012287;28;20565;-49
2022/06/05 00:41:29;;;;;;;10.23;8.38;;;;;;;7.83;99.86;102176.47;5012754;28;20187;-47
2022/06/05 00:43:59;;;;;;;8.35;7.55;;;;;;;7.90;99.43;102182.66;5011386;28;20200;-49
2022/06/05 00:46:26;;;;;;;8.13;7.32;;;;;;;7.88;99.65;102176.44;5012410;28;20663;-48
2022/06/05 00:48:51;;;;;;;8.52;7.18;;;;;;;7.74;99.08;102173.81;5011743;28;20217;-48
2022/06/05 00:51:17;;;;;;;8.48;7.57;;;;;;;7.67;99.46;102178.28;5012326;28;20247;-48
2022/06/05 00:53:44;;;;;;;9.05;8.18;;;;;;;7.43;99.61;102177.53;5011569;28;20200;-48
2022/06/05 00:56:11;;;;;;;9.82;7.82;;;;;;;7.50;100.00;102157.03;5012081;28;20207;-47
2022/06/05 00:58:37;;;;;;;8.68;7.88;;;;;;;7.52;100.00;102170.34;5011596;28;20546;-46
2022/06/05 01:01:03;;;;;;;8.50;7.60;;;;;;;7.62;100.00;102164.97;5011744;28;20272;-49
2022/06/05 01:03:30;;;;;;;10.82;8.50;;;;;;;7.69;100.00;102168.50;5010929;28;20776;-48
2022/06/05 01:05:55;;;;;;;7.78;7.07;;;;;;;7.45;100.00;102165.94;5011627;28;20208;-47
2022/06/05 01:08:21;;;;;;;9.30;8.13;;;;;;;7.48;100.00;102168.59;5011342;28;20680;-48
2022/06/05 01:11:09;;;;;;;9.10;7.65;;;;;;;7.54;100.00;102160.56;5011892;28;20226;-47
2022/06/05 01:14:15;;;;;;;9.15;7.93;;;;;;;7.41;100.00;102165.97;5011707;28;20758;-47
2022/06/05 01:16:58;;;;;;;9.98;8.02;;;;;;;7.25;100.00;102177.56;5017796;28;20564;-47
2022/06/05 01:19:27;;;;;;;8.85;8.05;;;;;;;7.17;100.00;102174.94;5030872;28;20172;-48
2022/06/05 01:22:30;;;;;;;9.00;8.10;;;;;;;7.27;100.00;102180.22;5030650;28;20164;-48
2022/06/05 01:25:16;;;;;;;7.97;7.25;;;;;;;7.43;100.00;102180.19;5027514;28;20197;-49
2022/06/05 01:27:48;;;;;;;10.85;7.60;;;;;;;7.48;100.00;102174.84;5010920;28;20176;-48
2022/06/05 01:30:22;;;;;;;9.02;8.13;;;;;;;7.49;100.00;102176.59;5010508;28;20169;-47
2022/06/05 01:33:02;;;;;;;9.20;7.57;;;;;;;7.52;100.00;102171.25;5011000;28;20169;-46
2022/06/05 01:35:51;;;;;;;8.52;7.72;;;;;;;7.29;99.78;102165.13;5011236;28;20655;-48
2022/06/05 01:38:44;;;;;;;9.70;7.75;;;;;;;7.25;100.00;102161.56;5009608;28;20644;-47
2022/06/05 01:41:14;;;;;;;8.48;7.68;;;;;;;7.21;100.00;102162.47;5011124;28;20193;-49
2022/06/05 01:43:46;;;;;;;8.45;7.65;;;;;;;7.26;100.00;102163.34;5010659;28;20211;-48
2022/06/05 01:46:24;;;;;;;7.65;6.97;;;;;;;7.34;100.00;102160.66;5011335;28;20177;-48
2022/06/05 01:49:10;;;;;;;7.78;6.97;;;;;;;7.32;100.00;102152.66;5011360;28;20220;-47
2022/06/05 01:51:46;;;;;;;8.10;7.30;;;;;;;7.33;100.00;102151.78;5010905;28;20181;-47
2022/06/05 01:54:19;;;;;;;9.85;8.30;;;;;;;7.16;99.94;102161.59;5009453;28;20222;-47
2022/06/05 01:56:50;;;;;;;12.40;8.05;;;;;;;7.04;100.00;102154.53;5010812;28;20168;-49
2022/06/05 01:59:26;;;;;;;10.05;8.95;;;;;;;6.95;100.00;102163.44;5011347;28;20577;-48
2022/06/05 02:01:57;;;;;;;9.57;8.45;;;;;;;7.05;100.00;102155.41;5010997;28;20161;-47
2022/06/05 02:04:41;;;;;;;8.15;7.45;;;;;;;7.15;100.00;102152.72;5010282;28;20651;-48
2022/06/05 02:07:14;;;;;;;8.57;7.75;;;;;;;7.12;100.00;102136.72;5010807;28;20218;-48
2022/06/05 02:10:02;;;;;;;8.75;7.95;;;;;;;7.09;100.00;102141.19;5009644;28;20226;-46
2022/06/05 02:12:28;;;;;;;8.45;7.65;;;;;;;7.07;100.00;102142.97;5010877;28;20196;-48
2022/06/05 02:14:55;;;;;;;8.85;8.02;;;;;;;7.00;100.00;102131.44;5009947;28;20231;-50
2022/06/05 02:17:20;;;;;;;8.48;7.68;;;;;;;7.10;100.00;102135.84;5010419;28;20268;-47
2022/06/05 02:19:46;;;;;;;8.68;7.88;;;;;;;7.11;100.00;102126.97;5010585;28;20226;-47
2022/06/05 02:22:28;;;;;;;8.65;7.85;;;;;;;6.98;100.00;102119.91;5010292;28;20169;-49
2022/06/05 02:24:55;;;;;;;7.82;7.13;;;;;;;6.77;100.00;102124.38;5010103;28;20620;-48
2022/06/05 02:27:23;;;;;;;8.75;7.43;;;;;;;6.70;100.00;102117.28;5010038;28;20183;-49
2022/06/05 02:29:50;;;;;;;10.50;8.07;;;;;;;6.72;100.00;102106.63;5010227;28;20223;-49
2022/06/05 02:32:39;;;;;;;8.20;7.03;;;;;;;6.90;100.00;102111.91;5010286;28;20182;-49
2022/06/05 02:35:29;;;;;;;6.63;6.05;;;;;;;6.85;100.00;102108.38;4981871;28;20216;-49
2022/06/05 02:38:42;;;;;;;7.82;7.03;;;;;;;6.63;100.00;102112.88;5010162;28;20260;-47
2022/06/05 02:41:24;;;;;;;7.32;6.63;;;;;;;6.69;100.00;102109.28;4949470;29;20191;-49
2022/06/05 02:47:10;;;;;;;7.85;7.05;;;;;;;6.79;100.00;102108.38;5010113;28;20623;-49
2022/06/05 02:49:40;;;;;;;7.95;7.18;;;;;;;6.74;100.00;102100.41;5009795;28;20213;-47
2022/06/05 02:52:07;;;;;;;9.43;8.48;;;;;;;6.67;100.00;102109.31;5010025;28;20209;-48
2022/06/05 02:54:40;;;;;;;9.35;8.45;;;;;;;6.53;100.00;102114.63;5009281;28;20189;-49
2022/06/05 02:57:05;;;;;;;8.90;8.02;;;;;;;6.66;100.00;102115.50;5010456;28;20179;-48
2022/06/05 02:59:31;;;;;;;9.15;8.35;;;;;;;6.71;100.00;102104.84;5010079;28;20180;-49
2022/06/05 03:04:42;;;;;;;8.27;7.47;;;;;;;6.84;100.00;102095.94;5009213;28;20240;-48
2022/06/05 03:07:08;;;;;;;7.25;6.55;;;;;;;6.92;100.00;102095.94;5010214;28;20176;-50
2022/06/05 03:09:33;;;;;;;7.60;6.90;;;;;;;6.93;100.00;102092.38;5010025;28;20192;-49
2022/06/05 03:11:59;;;;;;;8.00;7.25;;;;;;;6.83;100.00;102093.28;5010102;28;20177;-47
2022/06/05 03:14:24;;;;;;;8.88;7.95;;;;;;;6.70;100.00;102095.09;5009183;28;20676;-49
2022/06/05 03:16:50;;;;;;;7.20;6.50;;;;;;;6.83;100.00;102103.94;5023389;28;20185;-48
2022/06/05 03:19:16;;;;;;;6.40;5.80;;;;;;;6.93;100.00;102097.69;5029250;28;20573;-47
2022/06/05 03:21:41;;;;;;;6.80;6.20;;;;;;;6.90;100.00;102089.72;5030022;28;20188;-49
2022/06/05 03:24:07;;;;;;;6.57;6.07;;;;;;;6.80;100.00;102097.75;5026591;28;20380;-49
2022/06/05 03:26:33;;;;;;;6.30;5.80;;;;;;;6.86;100.00;102090.63;5024062;28;20642;-48
2022/06/05 03:28:59;;;;;;;6.63;6.05;;;;;;;6.81;100.00;102087.97;5033230;28;20613;-50
2022/06/05 03:31:25;;;;;;;5.85;5.38;;;;;;;6.91;100.00;102097.72;5033850;28;20168;-48
2022/06/05 03:33:50;;;;;;;5.50;5.10;;;;;;;7.00;100.00;102087.03;5032845;28;20274;-49
2022/06/05 03:36:17;;;;;;;6.20;5.70;;;;;;;7.04;100.00;102103.00;5033125;28;20168;-49
2022/06/05 03:38:45;;;;;;;5.60;5.10;;;;;;;6.98;100.00;102111.91;5033591;28;20173;-49
2022/06/05 03:41:10;;;;;;;6.15;5.68;;;;;;;6.90;100.00;102119.03;5032841;28;20639;-48
2022/06/05 03:43:37;;;;;;;5.35;4.95;;;;;;;6.94;100.00;102120.78;5031478;28;20200;-49
2022/06/05 03:46:05;;;;;;;5.70;5.20;;;;;;;6.99;100.00;102117.22;5033233;28;20183;-50
2022/06/05 03:48:31;;;;;;;5.13;4.75;;;;;;;7.04;100.00;102121.66;5032668;28;20195;-49
2022/06/05 03:50:58;;;;;;;4.95;4.63;;;;;;;7.12;100.00;102119.84;5033434;28;20160;-48
2022/06/05 03:53:23;;;;;;;5.30;4.90;;;;;;;7.15;100.00;102127.81;5032104;28;20195;-49
2022/06/05 03:55:49;;;;;;;5.05;4.65;;;;;;;7.18;100.00;102133.16;5032987;28;20174;-48
2022/06/05 03:58:14;;;;;;;5.18;4.78;;;;;;;7.04;100.00;102130.53;5032934;28;20161;-49
2022/06/05 04:00:41;;;;;;;4.63;4.22;;;;;;;7.02;100.00;102113.69;5032814;28;20179;-48
2022/06/05 04:03:07;;;;;;;5.32;4.82;;;;;;;7.12;100.00;102112.72;5032242;28;20291;-48
2022/06/05 04:05:33;;;;;;;5.22;4.72;;;;;;;7.12;100.00;102114.53;5032692;28;20207;-48
2022/06/05 04:07:58;;;;;;;5.65;5.15;;;;;;;7.20;100.00;102099.41;5031737;28;20212;-50
2022/06/05 04:10:24;;;;;;;5.03;4.63;;;;;;;7.37;100.00;102105.53;5032624;28;20179;-49
2022/06/05 04:12:50;;;;;;;5.35;4.85;;;;;;;7.27;100.00;102102.94;5031158;28;20510;-50
2022/06/05 04:15:15;;;;;;;4.90;4.55;;;;;;;7.41;100.00;102099.31;5031858;28;20230;-48
2022/06/05 04:17:41;;;;;;;4.93;4.53;;;;;;;7.57;100.00;102099.22;5032356;28;20180;-49
2022/06/05 04:20:08;;;;;;;4.70;4.40;;;;;;;7.65;100.00;102094.72;5032470;28;20591;-49
2022/06/05 04:22:35;;;;;;;5.65;5.20;;;;;;;7.64;100.00;102092.97;5032741;28;20218;-48
2022/06/05 04:25:02;;;;;;;5.50;5.10;;;;;;;7.64;100.00;102095.63;5031674;28;20195;-50
2022/06/05 04:27:28;;;;;;;4.65;4.28;;;;;;;7.76;100.00;102100.00;5032636;28;20172;-48
2022/06/05 04:29:53;;;;;;;5.10;4.57;;;;;;;7.88;100.00;102101.72;5032424;28;20287;-49
2022/06/05 04:32:19;;;;;;;5.00;4.70;;;;;;;8.01;100.00;102106.94;5063767;28;20176;-49
2022/06/05 04:34:45;;;;;;;7.82;6.18;;;;;;;8.09;100.00;102098.91;5031611;28;20188;-49
2022/06/05 04:37:10;;;;;;;6.88;6.38;;;;;;;8.28;100.00;102082.72;5030936;28;20172;-48
2022/06/05 04:39:36;;;;;;;7.20;6.60;;;;;;;8.46;100.00;102085.25;5032096;28;20653;-49
2022/06/05 04:42:01;;;;;;;7.28;6.68;;;;;;;8.53;100.00;102081.63;5032528;28;20668;-49
2022/06/05 04:44:27;;;;;;;8.40;7.60;;;;;;;8.68;100.00;102072.59;5031346;28;20199;-48
2022/06/05 04:46:53;;;;;;;9.75;8.85;;;;;;;8.84;100.00;102062.63;5031844;28;20168;-49
2022/06/05 04:49:19;;;;;;;9.73;8.82;;;;;;;8.95;100.00;102063.38;5031153;28;20561;-48
2022/06/05 04:51:44;;;;;;;12.52;9.82;;;;;;;9.23;100.00;102076.41;5031270;28;20167;-49
2022/06/05 04:54:14;;;;;;;10.30;9.25;;;;;;;9.31;100.00;102069.16;5030873;28;20764;-50
2022/06/05 04:56:39;;;;;;;13.27;10.07;;;;;;;9.44;100.00;102061.84;5031095;28;20194;-50
2022/06/05 04:59:05;;;;;;;9.93;9.02;;;;;;;9.62;100.00;102048.25;5031099;28;20184;-51
2022/06/05 05:01:32;;;;;;;10.05;9.05;;;;;;;9.76;100.00;102049.81;5030636;28;20172;-49
2022/06/05 05:04:02;;;;;;;11.68;10.35;;;;;;;9.99;100.00;102039.63;5030543;28;20215;-48
2022/06/05 05:06:29;;;;;;;13.63;11.20;;;;;;;10.18;100.00;102044.66;5031017;28;20174;-49
2022/06/05 05:08:55;;;;;;;11.60;10.40;;;;;;;10.43;100.00;102038.03;5030344;28;20192;-50
2022/06/05 05:11:21;;;;;;;12.48;11.05;;;;;;;10.65;100.00;102051.03;5030990;28;20170;-49
2022/06/05 05:13:47;;;;;;;12.48;9.95;;;;;;;10.70;100.00;102041.97;5030122;28;20195;-51
2022/06/05 05:16:12;;;;;;;12.98;10.15;;;;;;;10.85;100.00;102030.06;5030479;28;20176;-49
2022/06/05 05:18:39;;;;;;;12.95;9.77;;;;;;;10.98;100.00;102030.69;5030583;28;20199;-48
2022/06/05 05:21:07;;;;;;;11.43;9.75;;;;;;;11.09;100.00;102036.72;5030630;28;20600;-48
2022/06/05 05:23:33;;;;;;;11.27;10.00;;;;;;;11.21;100.00;102042.72;5030190;28;20214;-48
2022/06/05 05:26:07;;;;;;;12.95;9.65;;;;;;;11.34;100.00;102042.41;5030775;28;20176;-47
2022/06/05 05:28:32;;;;;;;10.60;9.60;;;;;;;11.42;100.00;102036.03;5030061;28;20195;-47
2022/06/05 05:30:58;;;;;;;12.10;9.23;;;;;;;11.54;100.00;102012.47;5030564;28;20172;-48
2022/06/05 05:33:24;;;;;;;10.57;9.13;;;;;;;11.80;100.00;102002.03;5029578;28;20283;-48
2022/06/05 05:35:50;;;;;;;12.35;10.55;;;;;;;11.88;100.00;102019.75;5030502;28;20204;-47
2022/06/05 05:38:16;;;;;;;14.20;10.63;;;;;;;12.01;100.00;102014.06;5043310;28;20176;-48
2022/06/05 05:43:25;;;;;;;13.25;10.68;;;;;;;12.33;100.00;102006.06;5029584;28;20875;-49
2022/06/05 05:45:51;;;;;;;14.38;11.73;;;;;;;12.36;100.00;102003.28;5028241;28;20161;-49
2022/06/05 05:48:16;;;;;;;12.80;11.10;;;;;;;12.47;100.00;102016.44;5026392;28;20212;-48
2022/06/05 05:50:45;;;;;;;12.25;10.90;;;;;;;12.64;100.00;102020.44;5029607;28;20586;-48
2022/06/05 05:53:11;;;;;;;13.07;11.73;;;;;;;12.71;100.00;102008.63;5029948;28;20187;-48
2022/06/05 05:55:37;;;;;;;13.50;10.98;;;;;;;12.88;100.00;102005.44;5029894;28;20171;-50
2022/06/05 05:58:03;;;;;;;16.27;12.27;;;;;;;12.98;100.00;101996.16;5030100;28;20571;-50
2022/06/05 06:00:28;;;;;;;16.42;12.98;;;;;;;13.18;100.00;102011.72;5030273;28;20172;-48
2022/06/05 06:02:53;;;;;;;14.55;11.93;;;;;;;13.45;100.00;102017.25;5029174;28;20516;-47
2022/06/05 06:05:19;;;;;;;12.75;11.48;;;;;;;13.51;99.42;102030.47;5029678;28;20268;-48
2022/06/05 06:07:45;;;;;;;12.07;10.82;;;;;;;13.70;98.88;102012.81;5029825;28;20171;-48
2022/06/05 06:10:12;;;;;;;16.35;12.20;;;;;;;13.88;97.67;102011.31;5029767;28;20210;-48
2022/06/05 06:12:37;;;;;;;12.85;11.55;;;;;;;14.13;96.30;102000.63;5030009;28;20182;-48
2022/06/05 06:15:03;;;;;;;15.77;11.60;;;;;;;14.44;95.15;102018.41;5028901;28;20187;-47
2022/06/05 06:17:29;;;;;;;12.35;11.15;;;;;;;14.37;92.74;102011.50;5030335;28;20275;-47
2022/06/05 06:19:54;;;;;;;14.23;11.15;;;;;;;14.61;91.78;102016.03;5028914;28;20168;-47
2022/06/05 06:22:20;;;;;;;12.57;10.98;;;;;;;14.82;89.95;102016.16;5029963;28;20263;-45
2022/06/05 06:24:46;;;;;;;12.68;10.25;;;;;;;14.83;88.47;102039.53;5029369;28;20206;-45
2022/06/05 06:27:11;;;;;;;11.38;10.27;;;;;;;14.67;89.30;102041.91;5030591;28;20623;-44
2022/06/05 06:29:37;;;;;;;12.40;10.75;;;;;;;15.26;89.16;102051.41;5025692;28;20246;-47
2022/06/05 06:32:04;;;;;;;12.80;11.50;;;;;;;15.45;87.64;102040.78;5020814;28;20211;-44
2022/06/05 06:34:29;;;;;;;10.35;9.27;;;;;;;15.36;87.60;102042.00;5030307;28;20196;-47
2022/06/05 06:36:54;;;;;;;12.68;9.95;;;;;;;15.78;85.74;102030.47;5027935;28;20184;-42
2022/06/05 06:39:20;;;;;;;11.30;10.10;;;;;;;16.01;84.90;102031.34;5028205;28;20200;-46
2022/06/05 06:41:47;;;;;;;11.18;10.02;;;;;;;16.06;84.34;102018.50;5030899;28;20180;-46
2022/06/05 06:44:13;;;;;;;11.95;10.50;;;;;;;16.48;83.75;102023.00;5029885;28;20192;-46
2022/06/05 06:46:39;;;;;;;11.55;10.35;;;;;;;16.21;81.84;102014.28;5030425;28;20179;-47
2022/06/05 06:49:04;;;;;;;12.60;9.13;;;;;;;16.63;81.04;102011.50;5030550;28;20192;-45
2022/06/05 06:51:30;;;;;;;12.43;9.85;;;;;;;16.57;80.06;102010.91;5030464;28;20658;-44
2022/06/05 06:53:55;;;;;;;9.98;8.50;;;;;;;16.71;79.86;102005.78;5029880;28;20224;-46
2022/06/05 06:56:26;;;;;;;11.73;8.95;;;;;;;16.79;77.63;102013.53;5030103;28;20199;-45
2022/06/05 06:58:52;;;;;;;9.98;8.95;;;;;;;16.88;77.45;102005.91;5011928;28;20167;-45
2022/06/05 07:01:18;;;;;;;13.48;9.65;;;;;;;17.01;77.32;102025.19;5031552;28;20229;-47
2022/06/05 07:03:43;;;;;;;10.23;9.20;;;;;;;17.20;77.41;102021.59;5027314;28;20640;-44
2022/06/05 07:06:12;;;;;;;9.63;8.27;;;;;;;17.41;76.87;102017.00;5028227;28;20265;-44
2022/06/05 07:08:38;;;;;;;9.80;8.27;;;;;;;17.23;75.65;102022.34;5032496;28;20195;-45
2022/06/05 07:11:06;;;;;;;8.43;7.47;;;;;;;17.98;76.01;102008.81;5024102;28;20206;-47
2022/06/05 07:13:31;;;;;;;8.27;7.40;;;;;;;17.82;72.29;102009.59;5030833;28;20231;-45
2022/06/05 07:15:57;;;;;;;8.77;7.88;;;;;;;17.56;72.77;102010.84;5014489;28;20218;-47
2022/06/05 07:18:23;;;;;;;10.77;8.00;;;;;;;17.50;73.25;102000.31;5031304;28;20625;-45
2022/06/05 07:20:49;;;;;;;8.15;6.97;;;;;;;17.88;72.08;101997.56;5031292;28;20263;-49
2022/06/05 07:23:15;;;;;;;8.18;7.05;;;;;;;18.08;71.26;101991.13;5030456;28;20313;-45
2022/06/05 07:25:49;;;;;;;9.88;7.78;;;;;;;18.27;70.65;101989.19;5023231;28;20204;-47
2022/06/05 07:28:15;;;;;;;10.43;8.07;;;;;;;18.47;69.68;101998.13;5019075;28;20789;-48
2022/06/05 07:30:46;;;;;;;9.43;7.93;;;;;;;18.58;71.51;101984.00;5030912;28;20190;-47
2022/06/05 07:33:12;;;;;;;7.00;6.30;;;;;;;18.44;71.14;101993.75;5022232;28;20206;-47
2022/06/05 07:35:38;;;;;;;9.13;6.57;;;;;;;18.19;69.24;101990.56;5027086;28;20255;-47
2022/06/05 07:38:04;;;;;;;9.57;5.55;;;;;;;18.89;69.33;101992.28;5022565;28;20200;-49
2022/06/05 07:40:29;;;;;;;7.05;5.70;;;;;;;18.99;67.70;101991.78;5005366;28;20179;-50
2022/06/05 07:42:54;;;;;;;5.97;5.35;;;;;;;19.41;68.01;101982.16;5030597;28;20213;-45
2022/06/05 07:45:20;;;;;;;7.43;6.35;;;;;;;18.63;66.26;101977.38;5027468;28;20196;-47
2022/06/05 07:47:45;;;;;;;5.97;5.38;;;;;;;18.75;67.34;101983.97;5030465;28;20172;-46
2022/06/05 07:50:13;;;;;;;7.50;5.35;;;;;;;18.98;66.09;101984.56;5029841;28;20187;-47
2022/06/05 07:55:23;;;;;;;6.30;4.65;;;;;;;19.95;63.19;101961.78;5026530;28;20175;-47
2022/06/05 07:57:48;;;;;;;5.35;4.68;;;;;;;20.24;63.16;101961.00;5032176;28;20178;-46
2022/06/05 08:00:14;;;;;;;4.68;4.28;;;;;;;19.81;62.86;101959.03;5032017;28;20175;-49
2022/06/05 08:02:41;;;;;;;6.63;4.93;;;;;;;19.89;62.45;101956.72;5032268;28;20168;-49
2022/06/05 08:05:07;;;;;;;4.90;4.50;;;;;;;20.14;61.61;101957.97;5030357;28;20191;-48
2022/06/05 08:07:33;;;;;;;8.40;4.75;;;;;;;19.78;61.09;101948.31;5032052;28;20572;-46
2022/06/05 08:10:00;;;;;;;4.45;4.05;;;;;;;20.11;60.02;101934.53;5031998;28;20204;-45
2022/06/05 08:12:29;;;;;;;4.68;3.75;;;;;;;19.56;58.80;101943.22;5031334;28;20181;-48
2022/06/05 08:14:55;;;;;;;3.80;3.50;;;;;;;19.37;57.96;101950.69;5031582;28;20275;-46
2022/06/05 08:17:27;;;;;;;4.80;4.03;;;;;;;19.07;59.77;101941.50;5030433;28;20187;-46
2022/06/05 08:19:53;;;;;;;4.47;3.88;;;;;;;19.50;61.34;101928.19;5027400;28;20175;-48
2022/06/05 08:22:21;;;;;;;4.28;3.30;;;;;;;20.15;58.90;101935.22;5030485;28;20177;-48
2022/06/05 08:24:47;;;;;;;4.13;3.53;;;;;;;20.35;59.83;101940.31;5027631;28;20670;-47
2022/06/05 08:27:15;;;;;;;4.72;4.30;;;;;;;19.94;57.77;101924.69;5010502;28;20160;-46
2022/06/05 08:29:41;;;;;;;6.05;4.40;;;;;;;20.42;59.11;101924.47;5009989;28;20212;-47
2022/06/05 08:32:08;;;;;;;4.25;3.67;;;;;;;20.98;57.68;101922.75;5014337;28;20172;-47
2022/06/05 08:34:33;;;;;;;6.88;5.65;;;;;;;20.77;61.25;101930.47;5024894;28;20227;-47
2022/06/05 08:42:39;;;;;;;4.55;3.40;;;;;;;21.38;58.12;101932.88;5029359;28;20619;-47
2022/06/05 08:45:16;;;;;;;5.85;5.10;;;;;;;20.94;59.69;101925.78;5021479;28;20187;-47
2022/06/05 08:47:55;;;;;;;6.90;4.40;;;;;;;21.39;56.54;101904.66;5027814;28;20225;-47
2022/06/05 08:50:49;;;;;;;4.15;3.78;;;;;;;20.90;56.18;101910.59;5029312;28;20192;-46
2022/06/05 08:54:17;;;;;;;4.30;3.90;;;;;;;21.55;57.03;101910.84;5029689;28;20333;-49
2022/06/05 08:56:47;;;;;;;3.35;3.10;;;;;;;21.41;56.67;101897.28;4959972;28;20219;-47
2022/06/05 08:59:16;;;;;;;5.13;3.13;;;;;;;21.66;54.18;101895.63;5031075;28;20180;-45
2022/06/05 09:01:51;;;;;;;3.95;3.22;;;;;;;21.15;54.69;101905.31;5030795;28;20254;-47
2022/06/05 09:04:53;;;;;;;6.07;3.00;;;;;;;21.68;53.50;101900.00;5030629;28;20234;-47
2022/06/05 09:07:25;;;;;;;5.50;2.80;;;;;;;21.59;54.07;101903.34;5029365;28;20618;-47
2022/06/05 09:10:21;;;;;;;3.28;2.97;;;;;;;20.95;54.59;101901.16;5031011;28;20270;-48
2022/06/05 09:12:54;;;;;;;3.80;3.40;;;;;;;20.32;56.27;101905.13;5030162;28;20218;-49
2022/06/05 09:15:28;;;;;;;2.83;2.60;;;;;;;21.69;54.20;101885.41;5030742;28;20267;-48
2022/06/05 09:18:01;;;;;;;2.30;2.10;;;;;;;21.81;51.70;101889.13;5031110;28;20533;-49
2022/06/05 09:20:43;;;;;;;2.67;2.47;;;;;;;21.73;50.81;101881.44;5024817;28;20242;-49
2022/06/05 09:23:40;;;;;;;3.10;2.63;;;;;;;21.85;50.56;101878.88;5022163;28;20257;-48
2022/06/05 09:26:36;;;;;;;3.03;2.72;;;;;;;21.40;54.53;101882.72;4983380;28;20683;-48
2022/06/05 09:29:10;;;;;;;2.80;2.30;;;;;;;22.31;53.89;101883.88;5030415;28;20254;-48
2022/06/05 09:31:56;;;;;;;2.67;2.42;;;;;;;22.14;51.91;101866.78;5030649;28;20175;-47
2022/06/05 09:34:58;;;;;;;3.53;2.00;;;;;;;21.96;50.50;101877.16;5028997;28;20200;-48
2022/06/05 09:37:45;;;;;;;4.53;2.30;;;;;;;22.20;51.55;101870.94;5025217;28;20187;-46
2022/06/05 09:40:18;;;;;;;2.72;2.28;;;;;;;22.09;52.23;101868.97;5030556;28;20159;-47
2022/06/05 09:42:54;;;;;;;2.20;2.00;;;;;;;21.89;50.62;101866.78;5030484;28;20176;-48
2022/06/05 09:45:33;;;;;;;2.30;2.10;;;;;;;21.61;52.14;101868.66;5030079;28;20175;-49
2022/06/05 09:48:22;;;;;;;1.98;1.77;;;;;;;21.70;51.94;101856.25;5029392;28;20193;-47
2022/06/05 09:50:47;;;;;;;2.40;1.80;;;;;;;21.30;50.98;101857.09;5028368;28;20195;-49
2022/06/05 09:53:27;;;;;;;2.08;1.63;;;;;;;21.84;48.73;101847.97;5029498;28;20191;-48
2022/06/05 09:56:13;;;;;;;1.98;1.77;;;;;;;21.87;47.19;101842.31;5029683;28;20183;-48
2022/06/05 09:59:07;;;;;;;2.03;1.80;;;;;;;21.92;50.11;101847.44;5029669;28;20203;-46
2022/06/05 10:01:46;;;;;;;1.83;1.52;;;;;;;21.59;48.29;101843.34;5029761;28;20238;-49
2022/06/05 10:04:12;;;;;;;1.80;1.70;;;;;;;21.89;50.20;101840.38;5029733;28;20203;-47
2022/06/05 10:06:48;;;;;;;2.10;1.90;;;;;;;22.20;50.23;101838.19;5030250;28;20594;-48
2022/06/05 10:09:21;;;;;;;2.00;1.65;;;;;;;22.06;48.67;101839.16;5029459;28;20207;-45
2022/06/05 10:11:59;;;;;;;1.80;1.65;;;;;;;21.73;48.23;101839.66;5029494;28;20485;-48
2022/06/05 10:14:40;;;;;;;1.55;1.45;;;;;;;21.79;50.27;101834.66;5023931;28;20583;-49
2022/06/05 10:17:27;;;;;;;1.70;1.60;;;;;;;22.39;50.86;101821.38;5022503;28;20198;-49
2022/06/05 10:20:02;;;;;;;1.83;1.73;;;;;;;22.51;48.14;101828.69;5029576;28;20597;-48
2022/06/05 10:22:56;;;;;;;2.10;2.00;;;;;;;22.09;49.30;101824.44;5029477;28;20174;-48
2022/06/05 10:25:36;;;;;;;1.92;1.77;;;;;;;21.79;49.54;101814.69;5020907;28;20556;-47
2022/06/05 10:28:30;;;;;;;2.33;2.20;;;;;;;22.05;51.33;101812.00;5008896;28;20188;-46
2022/06/05 10:31:23;;;;;;;2.60;2.10;;;;;;;22.26;50.42;101802.31;5004421;28;20262;-48
2022/06/05 10:34:36;;;;;;;1.98;1.77;;;;;;;22.26;49.62;101782.28;5009270;28;20192;-48
2022/06/05 10:37:02;;;;;;;1.98;1.73;;;;;;;21.99;48.68;101767.75;5022568;28;20195;-48
2022/06/05 10:40:18;;;;;;;1.90;1.80;;;;;;;22.33;49.13;101765.38;5033386;28;20377;-48
2022/06/05 10:43:01;;;;;;;3.53;2.70;;;;;;;21.38;57.78;101770.22;4992124;28;20181;-47
2022/06/05 10:45:42;;;;;;;4.55;2.85;;;;;;;21.68;59.01;101763.63;5032969;28;20588;-47
2022/06/05 10:48:10;;;;;;;2.10;1.90;;;;;;;22.01;51.86;101743.97;5033861;28;20164;-49
2022/06/05 10:50:51;;;;;;;3.25;2.65;;;;;;;21.88;55.93;101742.22;5033384;28;20187;-46
2022/06/05 10:53:36;;;;;;;3.22;2.75;;;;;;;21.71;58.63;101744.31;5033561;28;20200;-48
2022/06/05 10:56:46;;;;;;;4.68;2.47;;;;;;;21.87;59.01;101744.09;5033349;28;20657;-49
2022/06/05 10:59:28;;;;;;;3.22;2.53;;;;;;;21.93;57.50;101737.31;5033339;28;20206;-47
2022/06/05 11:02:31;;;;;;;4.03;2.78;;;;;;;21.71;59.04;101738.88;5032998;28;20214;-49
2022/06/05 11:05:24;;;;;;;4.22;3.00;;;;;;;21.26;60.03;101741.06;5033073;28;20286;-48
2022/06/05 11:08:21;;;;;;;2.75;2.55;;;;;;;21.70;60.02;101742.56;5033594;28;20191;-48
2022/06/05 11:14:18;;;;;;;4.22;2.70;;;;;;;21.37;60.40;101734.88;5033018;28;20199;-48
2022/06/05 11:16:57;;;;;;;2.65;2.45;;;;;;;21.54;58.82;101731.88;5033122;28;20220;-47
2022/06/05 11:19:51;;;;;;;2.92;2.50;;;;;;;22.12;60.32;101728.69;5033191;28;20203;-48
2022/06/05 11:22:20;;;;;;;3.40;2.92;;;;;;;21.54;58.39;101715.50;5033005;28;20623;-48
2022/06/05 11:24:51;;;;;;;6.38;2.33;;;;;;;21.67;59.37;101725.53;5030782;28;20294;-48
2022/06/05 11:27:46;;;;;;;2.90;2.63;;;;;;;21.16;60.38;101731.75;5012944;28;20184;-48
2022/06/05 11:30:17;;;;;;;3.95;2.65;;;;;;;22.18;58.95;101725.50;5013245;28;20254;-48
2022/06/05 11:33:09;;;;;;;3.78;2.55;;;;;;;21.44;58.03;101738.06;5012980;28;20427;-50
2022/06/05 11:35:58;;;;;;;3.13;2.58;;;;;;;20.83;59.21;101737.66;5012731;28;20569;-47
2022/06/05 11:38:49;;;;;;;3.10;2.50;;;;;;;20.62;60.24;101735.41;5012804;28;20161;-48
2022/06/05 11:41:36;;;;;;;3.17;2.88;;;;;;;21.42;59.51;101737.31;5013019;28;20168;-48
2022/06/05 11:44:26;;;;;;;3.75;2.33;;;;;;;21.48;57.97;101725.97;5012578;28;20203;-48
2022/06/05 11:47:10;;;;;;;2.38;2.20;;;;;;;21.22;58.86;101722.31;5012465;28;20253;-48
2022/06/05 11:49:49;;;;;;;3.33;2.40;;;;;;;21.44;58.55;101718.97;5011618;28;20701;-47
2022/06/05 11:52:26;;;;;;;3.53;2.30;;;;;;;21.91;58.90;101712.00;5012585;28;20243;-47
2022/06/05 11:54:57;;;;;;;2.75;2.30;;;;;;;21.70;56.63;101707.09;5012114;28;20273;-48
2022/06/05 11:57:35;;;;;;;2.75;2.25;;;;;;;21.45;57.32;101704.34;5012581;28;20172;-47
2022/06/05 12:00:03;;;;;;;3.60;2.60;;;;;;;21.79;58.07;101702.84;5012492;28;20470;-47
2022/06/05 12:02:52;;;;;;;3.45;2.70;;;;;;;21.26;58.38;101712.94;5011202;28;20659;-47
2022/06/05 12:05:39;;;;;;;2.90;2.70;;;;;;;20.80;59.14;101707.91;5012335;28;20156;-46
2022/06/05 12:08:18;;;;;;;5.32;2.45;;;;;;;20.98;59.82;101702.06;5012240;28;20585;-46
2022/06/05 12:11:37;;;;;;;3.55;2.60;;;;;;;20.70;59.82;101713.94;5012213;28;20584;-49